ENLK

Leknes Airport

Leknes, Norway
METAR ENLK 182120Z 17010KT 9999 FEW035 07/03 Q1038
Observed Flight Rules
Nov-18 @ 21:20 UTC (4 hours ago) Visual Flight Rules
Wind Visibility Clouds
170° at 10 knots 10,000+ meters
  • Few at 3,500' AGL
Temperatures Readings
Current 7°C / 45°F
Dewpoint 3°C / 37°F
Humidity 76%
Altimeter 30.65" Hg
Pressure 1038 hPa
Elevation 26
METAR ENLK 182120Z 17010KT 9999 FEW035 07/03 Q1038
Observed Flight Rules
Nov-18 @ 21:20 UTC
(4 hours ago)
VFR
Wind Visibility
170° at 10 knots 10,000+ meters
Clouds
  • Few at 3,500' AGL
Temperature Dewpoint
7°C / 45°F 3°C / 37°F
Humidity Altimeter Pressure
76% 30.65" Hg 1038 hPa